Time;durP1;ratioP1;P1;durP2;ratioP2;P2;SDS_P1;SDS_P2;PMS_P1;PMS_P2;Temp;Humidity;BMP_temperature;BMP_pressure;BME280_temperature;BME280_humidity;BME280_pressure;Samples;Min_cycle;Max_cycle;Signal;HPM_P1;HPM_P2
2022/12/19 00:00:46;;;;;;;50.87;33.50;;;0.40;99.90;;;;;;5074172;28;20469;-70
2022/12/19 00:03:15;;;;;;;61.20;35.50;;;0.40;99.90;;;;;;5075827;28;20496;-69
2022/12/19 00:05:42;;;;;;;49.83;38.13;;;0.40;99.90;;;;;;5075200;28;20487;-69
2022/12/19 00:08:14;;;;;;;56.47;34.47;;;0.40;99.90;;;;;;5084013;28;20829;-70
2022/12/19 00:10:41;;;;;;;57.53;38.47;;;0.50;99.90;;;;;;5094222;28;20461;-69
2022/12/19 00:13:08;;;;;;;60.63;37.30;;;0.40;99.90;;;;;;5078434;28;20966;-69
2022/12/19 00:15:35;;;;;;;51.00;35.73;;;0.40;99.90;;;;;;5081896;28;20493;-69
2022/12/19 00:18:02;;;;;;;48.30;37.93;;;0.40;99.90;;;;;;5075686;28;21286;-69
2022/12/19 00:20:30;;;;;;;56.10;36.77;;;0.50;99.90;;;;;;5089663;28;20481;-69
2022/12/19 00:22:57;;;;;;;40.60;31.40;;;0.50;99.90;;;;;;5085173;28;20469;-69
2022/12/19 00:25:24;;;;;;;49.60;36.10;;;0.50;99.90;;;;;;5086323;28;20468;-70
2022/12/19 00:27:51;;;;;;;59.80;38.90;;;0.60;99.90;;;;;;5084423;28;20520;-70
2022/12/19 00:30:17;;;;;;;56.43;40.50;;;0.60;99.90;;;;;;5087114;28;20462;-69
2022/12/19 00:32:44;;;;;;;55.47;40.30;;;0.60;99.90;;;;;;5086466;28;20469;-70
2022/12/19 00:35:11;;;;;;;55.43;41.33;;;0.70;99.90;;;;;;5087776;28;20473;-70
2022/12/19 00:37:39;;;;;;;48.97;37.40;;;0.70;99.90;;;;;;5079794;28;21010;-70
2022/12/19 00:40:08;;;;;;;42.63;36.47;;;0.70;99.90;;;;;;5087069;28;20483;-69
2022/12/19 00:42:34;;;;;;;52.63;36.87;;;0.70;99.90;;;;;;5081052;28;20838;-69
2022/12/19 00:45:01;;;;;;;57.63;41.13;;;0.70;99.90;;;;;;5083708;28;20869;-69
2022/12/19 00:47:28;;;;;;;57.03;41.47;;;0.70;99.90;;;;;;5086565;28;20485;-69
2022/12/19 00:49:55;;;;;;;52.50;42.27;;;0.70;99.90;;;;;;5088085;28;20458;-69
2022/12/19 00:52:23;;;;;;;57.23;39.83;;;0.80;99.90;;;;;;5098610;28;20467;-69
2022/12/19 00:54:51;;;;;;;57.93;43.70;;;0.80;99.90;;;;;;5082421;28;20469;-69
2022/12/19 00:57:18;;;;;;;46.93;38.90;;;0.80;99.90;;;;;;5078932;28;20474;-69
2022/12/19 00:59:45;;;;;;;60.93;42.77;;;0.80;99.90;;;;;;5084346;28;20473;-69
2022/12/19 01:02:14;;;;;;;66.53;44.27;;;0.80;99.90;;;;;;5084543;28;20553;-69
2022/12/19 01:04:41;;;;;;;51.43;40.73;;;0.80;99.90;;;;;;5083460;28;20489;-69
2022/12/19 01:07:09;;;;;;;58.10;43.63;;;0.80;99.90;;;;;;5089973;28;20489;-69
2022/12/19 01:09:36;;;;;;;60.70;45.77;;;0.90;99.90;;;;;;5089867;28;20458;-69
2022/12/19 01:14:53;;;;;;;56.50;43.83;;;0.90;99.90;;;;;;5080625;28;20469;-69
2022/12/19 01:17:20;;;;;;;48.23;41.67;;;0.90;99.90;;;;;;5081170;28;20462;-70
2022/12/19 01:19:46;;;;;;;58.80;43.47;;;0.90;99.90;;;;;;5091091;28;20449;-69
2022/12/19 01:22:14;;;;;;;57.93;43.43;;;0.90;99.90;;;;;;5086945;28;20501;-69
2022/12/19 01:24:41;;;;;;;53.77;43.00;;;0.90;99.90;;;;;;5079942;28;20466;-69
2022/12/19 01:27:10;;;;;;;61.97;42.67;;;1.00;99.90;;;;;;5083795;28;20485;-70
2022/12/19 01:29:36;;;;;;;62.63;44.70;;;1.00;99.90;;;;;;5082599;28;20496;-69
2022/12/19 01:32:03;;;;;;;53.63;41.63;;;1.00;99.90;;;;;;5081475;28;20874;-70
2022/12/19 01:34:30;;;;;;;58.00;46.00;;;1.00;99.90;;;;;;5085393;28;20460;-69
2022/12/19 01:36:57;;;;;;;57.30;42.27;;;1.00;99.90;;;;;;5084328;28;20556;-70
2022/12/19 01:39:24;;;;;;;55.33;42.23;;;1.00;99.90;;;;;;5077670;28;20461;-69
2022/12/19 01:41:50;;;;;;;55.30;42.67;;;1.00;99.90;;;;;;5083257;28;20838;-69
2022/12/19 01:44:18;;;;;;;54.93;42.67;;;1.10;99.90;;;;;;5082084;28;20914;-69
2022/12/19 01:46:49;;;;;;;58.30;43.07;;;1.10;99.90;;;;;;5083176;28;20466;-69
2022/12/19 01:49:21;;;;;;;55.50;39.63;;;1.10;99.90;;;;;;5084690;28;20545;-69
2022/12/19 01:51:54;;;;;;;52.40;41.77;;;1.10;99.90;;;;;;5074972;28;20963;-69
2022/12/19 01:54:25;;;;;;;66.77;41.90;;;1.10;99.90;;;;;;5080952;28;20462;-69
2022/12/19 01:56:55;;;;;;;60.37;41.37;;;1.10;99.90;;;;;;5076041;28;20575;-69
2022/12/19 01:59:28;;;;;;;56.63;40.57;;;1.10;99.90;;;;;;5080953;28;20474;-69
2022/12/19 02:02:00;;;;;;;54.17;39.27;;;1.20;99.90;;;;;;5086188;28;20570;-69
2022/12/19 02:04:29;;;;;;;39.90;34.53;;;1.20;99.90;;;;;;5082521;28;20493;-69
2022/12/19 02:06:58;;;;;;;55.27;37.87;;;1.20;99.90;;;;;;5079908;28;20461;-69
2022/12/19 02:09:25;;;;;;;50.03;38.00;;;1.20;99.90;;;;;;5080271;28;20458;-69
2022/12/19 02:11:52;;;;;;;59.90;39.90;;;1.20;99.90;;;;;;5088350;28;20462;-69
2022/12/19 02:14:19;;;;;;;66.60;41.20;;;1.20;99.90;;;;;;5078910;28;20463;-69
2022/12/19 02:16:55;;;;;;;58.00;39.47;;;1.20;99.90;;;;;;5083320;28;20450;-69
2022/12/19 02:19:48;;;;;;;61.60;39.10;;;1.20;99.90;;;;;;5084174;28;20556;-69
2022/12/19 02:22:22;;;;;;;52.20;40.60;;;1.20;99.90;;;;;;5082618;28;20964;-69
2022/12/19 02:25:28;;;;;;;50.03;36.97;;;1.20;99.90;;;;;;5079672;28;20464;-69
2022/12/19 02:28:21;;;;;;;55.90;40.93;;;1.30;99.90;;;;;;5033103;28;20495;-69
2022/12/19 02:31:07;;;;;;;48.77;37.37;;;1.30;99.90;;;;;;5080226;28;20461;-69
2022/12/19 02:33:42;;;;;;;58.50;40.30;;;1.30;99.90;;;;;;5084475;28;20463;-69
2022/12/19 02:36:16;;;;;;;62.80;42.33;;;1.30;99.90;;;;;;5082000;28;20829;-69
2022/12/19 02:38:50;;;;;;;56.80;38.40;;;1.30;99.90;;;;;;5075334;28;20467;-69
2022/12/19 02:41:21;;;;;;;54.00;37.90;;;1.40;99.90;;;;;;5081169;28;20465;-69
2022/12/19 02:43:51;;;;;;;58.90;40.53;;;1.30;99.90;;;;;;5082649;28;20473;-69
2022/12/19 02:46:20;;;;;;;45.13;36.23;;;1.30;99.90;;;;;;5087205;28;20461;-69
2022/12/19 02:48:48;;;;;;;59.90;40.90;;;1.40;99.90;;;;;;5083297;28;20997;-69
2022/12/19 02:51:15;;;;;;;56.07;41.70;;;1.30;99.90;;;;;;5086401;28;20462;-69
2022/12/19 02:53:42;;;;;;;56.83;40.73;;;1.40;99.90;;;;;;5074954;28;20477;-69
2022/12/19 02:56:28;;;;;;;63.10;40.60;;;1.40;99.90;;;;;;5081175;28;20865;-69
2022/12/19 02:59:14;;;;;;;58.57;41.30;;;1.40;99.90;;;;;;5079181;28;20568;-69
2022/12/19 03:01:48;;;;;;;56.77;43.23;;;1.30;99.90;;;;;;5088796;28;20815;-69
2022/12/19 03:04:23;;;;;;;62.13;41.93;;;1.40;99.90;;;;;;5077244;28;20518;-69
2022/12/19 03:06:54;;;;;;;53.87;42.53;;;1.40;99.90;;;;;;5077895;28;20476;-69
2022/12/19 03:09:28;;;;;;;59.03;41.97;;;1.40;99.90;;;;;;5074752;28;20487;-69
2022/12/19 03:12:01;;;;;;;54.50;39.60;;;1.40;99.90;;;;;;5073321;28;20469;-69
2022/12/19 03:14:30;;;;;;;49.50;39.50;;;1.40;99.90;;;;;;5077858;28;20476;-69
2022/12/19 03:17:03;;;;;;;58.40;42.47;;;1.40;99.90;;;;;;5077823;28;20471;-68
2022/12/19 03:19:31;;;;;;;52.70;41.03;;;1.50;99.90;;;;;;5079301;28;20460;-69
2022/12/19 03:21:59;;;;;;;62.27;43.20;;;1.40;99.90;;;;;;5081227;28;20466;-69
2022/12/19 03:24:27;;;;;;;53.37;40.60;;;1.50;99.90;;;;;;5082764;28;20526;-68
2022/12/19 03:26:57;;;;;;;60.80;43.83;;;1.50;99.90;;;;;;5089605;28;20572;-69
2022/12/19 03:29:29;;;;;;;49.47;39.00;;;1.50;99.90;;;;;;5082243;28;20490;-69
2022/12/19 03:32:01;;;;;;;54.77;42.87;;;1.50;99.90;;;;;;5085975;28;20851;-69
2022/12/19 03:34:33;;;;;;;52.13;41.03;;;1.50;99.90;;;;;;5074712;28;20473;-69
2022/12/19 03:37:03;;;;;;;55.17;41.23;;;1.50;99.90;;;;;;5079802;28;20512;-70
2022/12/19 03:39:31;;;;;;;59.33;40.93;;;1.50;99.90;;;;;;5073273;28;20469;-70
2022/12/19 03:44:46;;;;;;;63.30;38.43;;;1.50;99.90;;;;;;5085359;28;20477;-70
2022/12/19 03:47:18;;;;;;;56.17;40.63;;;1.60;99.90;;;;;;5083900;28;21055;-71
2022/12/19 03:49:47;;;;;;;58.73;40.07;;;1.60;99.90;;;;;;5082331;28;20548;-71
2022/12/19 03:52:24;;;;;;;47.33;38.83;;;1.60;99.90;;;;;;5078735;28;20462;-71
2022/12/19 03:55:00;;;;;;;49.30;35.17;;;1.60;99.90;;;;;;5080634;28;20827;-71
2022/12/19 03:57:32;;;;;;;55.03;36.20;;;1.70;99.90;;;;;;5080201;28;20487;-71
2022/12/19 04:00:03;;;;;;;48.23;37.87;;;1.70;99.90;;;;;;5080884;28;20556;-71
2022/12/19 04:02:34;;;;;;;51.77;36.90;;;1.80;99.90;;;;;;5082826;28;20454;-71
2022/12/19 04:05:06;;;;;;;50.77;37.57;;;1.80;99.90;;;;;;5077744;28;21019;-70
2022/12/19 04:07:34;;;;;;;49.40;38.10;;;1.90;99.90;;;;;;5075053;28;20565;-71
2022/12/19 04:10:06;;;;;;;45.83;32.27;;;1.90;99.90;;;;;;5074972;28;20463;-71
2022/12/19 04:12:38;;;;;;;58.73;37.47;;;1.90;99.90;;;;;;5076760;28;20458;-70
2022/12/19 04:15:06;;;;;;;48.10;34.47;;;2.00;99.90;;;;;;5082098;28;20464;-71
2022/12/19 04:17:40;;;;;;;54.97;37.80;;;2.00;99.90;;;;;;5073992;28;20481;-72
2022/12/19 04:20:10;;;;;;;54.20;38.33;;;2.00;99.90;;;;;;5082190;28;20460;-71
2022/12/19 04:22:41;;;;;;;48.03;34.77;;;2.10;99.90;;;;;;5077400;28;20462;-71
2022/12/19 04:25:13;;;;;;;50.00;35.50;;;2.20;99.90;;;;;;5076395;28;20956;-71
2022/12/19 04:27:45;;;;;;;53.13;34.77;;;2.20;99.90;;;;;;5074341;28;20463;-71
2022/12/19 04:30:16;;;;;;;45.67;35.20;;;2.20;99.90;;;;;;5079108;28;20875;-72
2022/12/19 04:32:45;;;;;;;52.70;36.20;;;2.20;99.90;;;;;;5077824;28;20477;-72
2022/12/19 04:35:12;;;;;;;48.30;37.10;;;2.20;99.90;;;;;;5079214;28;20469;-72
2022/12/19 04:37:40;;;;;;;47.63;34.77;;;2.30;99.90;;;;;;5082773;28;20470;-72
2022/12/19 04:40:09;;;;;;;49.13;34.80;;;2.40;99.90;;;;;;5076450;28;20461;-72
2022/12/19 04:42:36;;;;;;;51.20;35.07;;;2.40;99.90;;;;;;5072017;28;20455;-71
2022/12/19 04:45:04;;;;;;;48.20;34.27;;;2.50;99.90;;;;;;5078049;28;20457;-72
2022/12/19 04:47:31;;;;;;;52.40;36.70;;;2.50;99.90;;;;;;5079365;28;20507;-71
2022/12/19 04:49:59;;;;;;;44.63;35.50;;;2.50;99.90;;;;;;5080778;28;20484;-71
2022/12/19 04:52:26;;;;;;;55.70;35.23;;;2.60;99.90;;;;;;5086803;28;20466;-72
2022/12/19 04:54:52;;;;;;;50.17;34.47;;;2.60;99.90;;;;;;5081994;28;20519;-71
2022/12/19 04:57:19;;;;;;;53.67;35.73;;;2.70;99.90;;;;;;5079350;28;20566;-71
2022/12/19 04:59:47;;;;;;;50.43;35.57;;;2.80;99.90;;;;;;5078927;28;20826;-72
2022/12/19 05:02:13;;;;;;;49.67;34.90;;;2.80;99.90;;;;;;5081470;28;20554;-71
2022/12/19 05:04:42;;;;;;;44.47;33.40;;;2.80;99.90;;;;;;5087099;28;20563;-70
2022/12/19 05:07:10;;;;;;;47.23;34.73;;;2.90;99.90;;;;;;5079443;28;20470;-70
2022/12/19 05:09:39;;;;;;;55.03;34.40;;;2.90;99.90;;;;;;5079302;28;20493;-71
2022/12/19 05:12:07;;;;;;;48.20;36.30;;;3.00;99.90;;;;;;5083070;28;20478;-71
2022/12/19 05:14:34;;;;;;;46.90;34.80;;;3.00;99.90;;;;;;5096346;28;20470;-72
2022/12/19 05:17:00;;;;;;;46.00;35.10;;;3.00;99.90;;;;;;5081244;28;20869;-72
2022/12/19 05:19:27;;;;;;;44.13;34.77;;;3.00;99.90;;;;;;5082680;28;20458;-71
2022/12/19 05:21:54;;;;;;;59.63;37.80;;;3.00;99.90;;;;;;5082466;28;20964;-72
2022/12/19 05:24:22;;;;;;;54.93;37.07;;;3.00;99.90;;;;;;5084742;28;20465;-72
2022/12/19 05:26:49;;;;;;;44.93;35.73;;;3.10;99.90;;;;;;5083310;28;20465;-72
2022/12/19 05:29:17;;;;;;;46.40;34.70;;;3.20;99.90;;;;;;5081188;28;20575;-71
2022/12/19 05:31:44;;;;;;;42.87;32.57;;;3.20;99.90;;;;;;5080558;28;20585;-72
2022/12/19 05:34:12;;;;;;;49.60;35.87;;;3.30;99.90;;;;;;5082372;28;20462;-72
2022/12/19 05:36:39;;;;;;;45.40;32.37;;;3.40;99.90;;;;;;5089256;28;20465;-72
2022/12/19 05:39:06;;;;;;;44.67;31.27;;;3.50;99.90;;;;;;5082712;28;20470;-73
2022/12/19 05:41:35;;;;;;;44.93;33.60;;;3.50;99.90;;;;;;5084491;28;20485;-72
2022/12/19 05:44:02;;;;;;;39.67;31.37;;;3.50;99.90;;;;;;5080103;28;20486;-72
2022/12/19 05:46:29;;;;;;;46.77;32.83;;;3.60;99.90;;;;;;5079413;28;20977;-72
2022/12/19 05:48:56;;;;;;;42.93;31.47;;;3.60;99.90;;;;;;5084080;28;20501;-71
2022/12/19 05:51:23;;;;;;;48.10;31.93;;;3.60;99.90;;;;;;5088961;28;20465;-72
2022/12/19 05:53:50;;;;;;;41.63;30.50;;;3.60;99.90;;;;;;5083592;28;20465;-72
2022/12/19 05:56:18;;;;;;;44.10;31.07;;;3.60;99.90;;;;;;5075931;28;20473;-72
2022/12/19 05:58:47;;;;;;;44.10;31.20;;;3.60;99.90;;;;;;5080641;28;20478;-72
2022/12/19 06:01:17;;;;;;;40.53;30.90;;;3.70;99.90;;;;;;5077865;28;20537;-71
2022/12/19 06:03:44;;;;;;;40.80;31.17;;;3.80;99.90;;;;;;5078940;28;20522;-72
2022/12/19 06:06:12;;;;;;;37.83;31.90;;;3.90;99.90;;;;;;5082367;28;20826;-72
2022/12/19 06:08:40;;;;;;;34.23;27.63;;;4.00;99.90;;;;;;5087698;28;20514;-72
2022/12/19 06:11:09;;;;;;;39.83;29.10;;;4.10;99.90;;;;;;5081792;28;20465;-72
2022/12/19 06:13:36;;;;;;;40.67;28.80;;;4.10;99.90;;;;;;5080805;28;20897;-73
2022/12/19 06:16:07;;;;;;;38.57;29.77;;;4.10;99.90;;;;;;5076317;28;20461;-72
2022/12/19 06:18:33;;;;;;;37.43;28.47;;;4.20;99.90;;;;;;5077380;28;20479;-71
2022/12/19 06:21:02;;;;;;;36.67;29.37;;;4.20;99.90;;;;;;5082374;28;20466;-71
2022/12/19 06:23:31;;;;;;;44.00;29.40;;;4.20;99.90;;;;;;5078655;28;20459;-71
2022/12/19 06:25:58;;;;;;;47.50;31.33;;;4.20;99.90;;;;;;5076021;28;21008;-72
2022/12/19 06:28:25;;;;;;;37.80;28.60;;;4.30;99.90;;;;;;5083246;28;20512;-72
2022/12/19 06:30:52;;;;;;;38.77;27.10;;;4.30;99.90;;;;;;5081653;28;20462;-71
2022/12/19 06:33:21;;;;;;;32.60;27.70;;;4.30;99.90;;;;;;5088004;28;20461;-70
2022/12/19 06:35:48;;;;;;;38.83;28.17;;;4.30;99.90;;;;;;5080722;28;20461;-73
2022/12/19 06:38:16;;;;;;;35.50;28.07;;;4.30;99.90;;;;;;5085621;28;20477;-71
2022/12/19 06:43:29;;;;;;;43.10;27.60;;;4.40;99.90;;;;;;5078236;28;20670;-71
2022/12/19 06:45:58;;;;;;;37.33;28.47;;;4.40;99.90;;;;;;5082067;28;20771;-72
2022/12/19 06:48:27;;;;;;;38.03;28.70;;;4.40;99.90;;;;;;5082031;28;20959;-72
2022/12/19 06:50:54;;;;;;;36.77;27.50;;;4.50;99.90;;;;;;5083991;28;20564;-73
2022/12/19 06:53:21;;;;;;;34.00;26.13;;;4.50;99.90;;;;;;5082117;28;20457;-73
2022/12/19 06:55:50;;;;;;;29.90;26.70;;;4.50;99.90;;;;;;5074748;28;20461;-72
2022/12/19 06:58:17;;;;;;;40.00;27.90;;;4.50;99.90;;;;;;5078220;28;20586;-73
2022/12/19 07:00:44;;;;;;;33.10;27.40;;;4.60;99.90;;;;;;5082447;28;20466;-71
2022/12/19 07:03:15;;;;;;;40.53;28.50;;;4.60;99.90;;;;;;5075089;28;20482;-72
2022/12/19 07:05:44;;;;;;;32.33;26.83;;;4.60;99.90;;;;;;5081367;28;20832;-71
2022/12/19 07:08:11;;;;;;;37.93;27.80;;;4.70;99.90;;;;;;5080539;28;20456;-73
2022/12/19 07:10:38;;;;;;;31.90;26.77;;;4.70;99.90;;;;;;5075897;28;20543;-73
2022/12/19 07:13:05;;;;;;;37.93;26.40;;;4.70;99.90;;;;;;5078195;28;20930;-73
2022/12/19 07:15:34;;;;;;;38.97;28.77;;;4.70;99.90;;;;;;5079308;28;20490;-71
2022/12/19 07:18:04;;;;;;;37.93;25.30;;;4.80;99.90;;;;;;5077948;28;20507;-72
2022/12/19 07:20:33;;;;;;;32.13;26.53;;;4.90;99.90;;;;;;5084531;28;21066;-71
2022/12/19 07:25:43;;;;;;;43.13;27.60;;;5.00;99.90;;;;;;5077401;28;21285;-71
2022/12/19 07:28:11;;;;;;;32.93;27.60;;;5.00;99.90;;;;;;5075977;28;20454;-71
2022/12/19 07:30:38;;;;;;;30.53;27.33;;;5.10;99.90;;;;;;5083700;28;20511;-73
2022/12/19 07:33:05;;;;;;;31.33;27.30;;;5.10;99.90;;;;;;5083684;28;20543;-72
2022/12/19 07:35:32;;;;;;;28.23;25.50;;;5.20;99.90;;;;;;5082984;28;20462;-72
2022/12/19 07:38:03;;;;;;;36.53;26.60;;;5.30;99.90;;;;;;5088825;28;20499;-72
2022/12/19 07:40:30;;;;;;;30.23;27.20;;;5.40;99.90;;;;;;5093141;28;20976;-72
2022/12/19 07:43:00;;;;;;;42.37;31.17;;;5.40;99.90;;;;;;5086957;28;20462;-71
2022/12/19 07:45:28;;;;;;;37.93;33.30;;;5.60;99.90;;;;;;5083754;28;20482;-71
2022/12/19 07:47:55;;;;;;;36.77;29.27;;;5.60;99.90;;;;;;5085362;28;21027;-71
2022/12/19 07:50:22;;;;;;;30.43;25.50;;;5.70;99.90;;;;;;5085471;28;20574;-71
2022/12/19 07:52:49;;;;;;;26.90;24.53;;;5.70;99.90;;;;;;5083511;28;21005;-72
2022/12/19 07:55:17;;;;;;;30.80;24.40;;;5.70;99.90;;;;;;5084519;28;21238;-72
2022/12/19 07:57:43;;;;;;;27.10;23.57;;;5.90;99.90;;;;;;5081304;28;21028;-73
2022/12/19 08:00:11;;;;;;;26.50;23.83;;;6.00;99.90;;;;;;5082811;28;20462;-73
2022/12/19 08:02:38;;;;;;;27.50;24.57;;;6.10;99.90;;;;;;5080028;28;20461;-72
2022/12/19 08:05:05;;;;;;;27.00;24.33;;;6.20;99.90;;;;;;5086910;28;20495;-71
2022/12/19 08:07:32;;;;;;;25.57;23.17;;;6.20;99.90;;;;;;5080421;28;20562;-71
2022/12/19 08:09:59;;;;;;;25.97;23.67;;;6.30;99.90;;;;;;5089939;28;20486;-71
2022/12/19 08:12:27;;;;;;;24.97;22.63;;;6.40;99.90;;;;;;5081427;28;20463;-73
2022/12/19 08:14:54;;;;;;;24.60;22.43;;;6.50;99.90;;;;;;5075261;28;20459;-72
2022/12/19 08:17:22;;;;;;;23.97;21.87;;;6.50;99.90;;;;;;5077127;28;20967;-72
2022/12/19 08:19:49;;;;;;;24.10;21.97;;;6.60;99.90;;;;;;5081249;28;20469;-71
2022/12/19 08:22:16;;;;;;;27.77;25.10;;;6.70;99.90;;;;;;5077396;28;20475;-73
2022/12/19 08:24:43;;;;;;;27.03;24.33;;;6.80;99.90;;;;;;5070451;28;20451;-71
2022/12/19 08:27:09;;;;;;;25.90;23.50;;;6.80;99.90;;;;;;5073051;28;20912;-71
2022/12/19 08:29:38;;;;;;;25.97;23.47;;;6.80;99.90;;;;;;5075109;28;20490;-72
2022/12/19 08:32:05;;;;;;;27.27;24.40;;;6.90;99.90;;;;;;5079977;28;20779;-72
2022/12/19 08:34:32;;;;;;;27.67;25.30;;;6.90;99.90;;;;;;5081618;28;20481;-72
2022/12/19 08:36:59;;;;;;;25.60;22.97;;;6.90;99.90;;;;;;5083850;28;20464;-73
2022/12/19 08:39:26;;;;;;;24.87;22.77;;;6.90;99.90;;;;;;5077239;28;20472;-71
2022/12/19 08:41:54;;;;;;;25.47;23.40;;;6.90;99.90;;;;;;5084393;28;20527;-69
2022/12/19 08:44:20;;;;;;;24.60;22.40;;;6.80;99.90;;;;;;5072903;28;20463;-68
2022/12/19 08:46:49;;;;;;;26.67;24.67;;;6.90;99.90;;;;;;5084955;28;20958;-70
2022/12/19 08:49:16;;;;;;;25.90;23.47;;;6.90;99.90;;;;;;5088547;28;20490;-69
2022/12/19 08:51:43;;;;;;;24.40;22.00;;;6.80;99.90;;;;;;5081976;28;20460;-69
2022/12/19 08:54:11;;;;;;;24.60;22.40;;;6.90;99.90;;;;;;5086189;28;20467;-70
2022/12/19 08:56:38;;;;;;;24.63;22.47;;;7.00;99.90;;;;;;5088094;28;20468;-70
2022/12/19 08:59:06;;;;;;;23.03;21.13;;;7.00;99.90;;;;;;5077639;28;20937;-69
2022/12/19 09:01:33;;;;;;;25.33;22.93;;;7.10;99.90;;;;;;5082490;28;20764;-70
2022/12/19 09:04:01;;;;;;;22.97;20.87;;;7.10;99.90;;;;;;5077329;28;20574;-70
2022/12/19 09:06:28;;;;;;;24.93;22.57;;;7.10;99.90;;;;;;5081596;28;21043;-70
2022/12/19 09:08:55;;;;;;;25.50;22.90;;;7.20;99.90;;;;;;5084304;28;21124;-69
2022/12/19 09:11:22;;;;;;;26.00;23.50;;;7.30;99.90;;;;;;5083025;28;20499;-70
2022/12/19 09:13:50;;;;;;;24.10;22.10;;;7.30;99.90;;;;;;5085313;28;20464;-68
2022/12/19 09:16:19;;;;;;;25.60;23.10;;;7.30;99.90;;;;;;5090534;28;20495;-69
2022/12/19 09:18:47;;;;;;;23.73;21.73;;;7.40;99.90;;;;;;5092663;28;20460;-72
2022/12/19 09:21:15;;;;;;;24.47;22.40;;;7.50;99.90;;;;;;5090712;28;20460;-71
2022/12/19 09:23:43;;;;;;;25.57;23.10;;;7.50;99.90;;;;;;5087497;28;20520;-68
2022/12/19 09:26:12;;;;;;;23.73;21.63;;;7.50;99.90;;;;;;5084614;28;20461;-69
2022/12/19 09:28:40;;;;;;;24.10;21.97;;;7.60;99.90;;;;;;5089683;28;20458;-69
2022/12/19 09:31:11;;;;;;;24.60;22.20;;;7.60;99.90;;;;;;5093694;28;20682;-69
2022/12/19 09:33:39;;;;;;;25.20;22.63;;;7.60;99.90;;;;;;5076191;28;20530;-69
2022/12/19 09:36:07;;;;;;;27.27;24.43;;;7.60;99.90;;;;;;5088037;28;20468;-69
2022/12/19 09:38:35;;;;;;;27.87;23.70;;;7.60;99.90;;;;;;5088231;28;20588;-69
2022/12/19 09:41:23;;;;;;;25.53;23.20;;;7.70;99.90;;;;;;5079085;28;21021;-69
2022/12/19 09:44:00;;;;;;;26.77;24.23;;;7.60;99.90;;;;;;5077395;28;20819;-68
2022/12/19 09:46:39;;;;;;;26.27;24.10;;;7.70;99.90;;;;;;5079380;28;20550;-68
2022/12/19 09:49:11;;;;;;;28.07;25.17;;;7.60;99.90;;;;;;5078902;28;20673;-68
2022/12/19 09:51:44;;;;;;;26.67;24.40;;;7.70;99.90;;;;;;5083972;28;20483;-70
2022/12/19 09:54:19;;;;;;;26.10;23.70;;;7.70;99.90;;;;;;5085496;28;20461;-69
2022/12/19 09:56:49;;;;;;;25.43;23.20;;;7.70;99.90;;;;;;5083268;28;20491;-70
2022/12/19 09:59:22;;;;;;;26.90;23.40;;;7.60;99.90;;;;;;5081612;28;20486;-69
2022/12/19 10:01:56;;;;;;;26.80;23.90;;;7.60;99.90;;;;;;5078090;28;20480;-69
2022/12/19 10:04:26;;;;;;;26.50;23.80;;;7.60;99.90;;;;;;5086055;28;20481;-71
2022/12/19 10:06:53;;;;;;;26.23;23.93;;;7.50;99.90;;;;;;5083719;28;20466;-70
2022/12/19 10:09:28;;;;;;;26.93;24.23;;;7.50;99.90;;;;;;5083120;28;20461;-68
2022/12/19 10:12:08;;;;;;;26.00;23.70;;;7.60;99.90;;;;;;5077386;28;20816;-70
2022/12/19 10:14:47;;;;;;;27.40;24.83;;;7.60;99.90;;;;;;5076959;28;20576;-68
2022/12/19 10:17:22;;;;;;;25.30;22.97;;;7.60;99.90;;;;;;5079743;28;20805;-71
2022/12/19 10:20:08;;;;;;;25.63;23.00;;;7.60;99.90;;;;;;5077608;28;20490;-69
2022/12/19 10:22:44;;;;;;;25.70;23.43;;;7.60;99.90;;;;;;5076627;28;20464;-69
2022/12/19 10:25:22;;;;;;;25.87;23.37;;;7.70;99.90;;;;;;5079554;28;20457;-70
2022/12/19 10:27:56;;;;;;;26.67;23.97;;;7.70;99.90;;;;;;5077638;28;21397;-72
2022/12/19 10:30:23;;;;;;;26.73;23.40;;;7.80;99.90;;;;;;5076399;28;21042;-73
2022/12/19 10:33:05;;;;;;;25.13;22.90;;;7.80;99.90;;;;;;5072987;28;20466;-71
2022/12/19 10:35:36;;;;;;;27.23;23.87;;;7.80;99.90;;;;;;5075844;28;20463;-73
2022/12/19 10:38:16;;;;;;;39.13;23.60;;;7.80;99.90;;;;;;5083758;28;20545;-69
2022/12/19 10:40:48;;;;;;;34.67;23.73;;;7.80;99.90;;;;;;5076262;28;20465;-70
2022/12/19 10:43:23;;;;;;;24.57;22.53;;;7.80;99.90;;;;;;5073454;28;20462;-74
2022/12/19 10:45:54;;;;;;;33.30;24.60;;;7.80;99.90;;;;;;5080353;28;20574;-73
2022/12/19 10:48:23;;;;;;;25.13;22.47;;;7.80;99.90;;;;;;5090686;28;20466;-71
2022/12/19 10:50:50;;;;;;;29.07;22.77;;;7.90;99.90;;;;;;5077891;28;20588;-72
2022/12/19 10:53:27;;;;;;;24.50;22.30;;;7.90;99.90;;;;;;5080504;28;20971;-74
2022/12/19 10:56:01;;;;;;;30.37;22.30;;;7.90;99.90;;;;;;5080193;28;20540;-70
2022/12/19 10:58:32;;;;;;;23.90;21.90;;;7.90;99.90;;;;;;5078643;28;21027;-71
2022/12/19 11:01:12;;;;;;;25.33;22.70;;;8.00;99.90;;;;;;5078313;28;20466;-69
2022/12/19 11:03:41;;;;;;;25.13;22.63;;;8.00;99.90;;;;;;5078598;28;20472;-69
2022/12/19 11:06:41;;;;;;;24.53;22.30;;;8.00;99.90;;;;;;5076507;28;20453;-70
2022/12/19 11:09:27;;;;;;;26.43;23.07;;;8.00;99.90;;;;;;5077851;28;20470;-71
2022/12/19 11:12:02;;;;;;;25.40;23.20;;;8.00;99.90;;;;;;5093634;28;20588;-68
2022/12/19 11:14:30;;;;;;;25.10;22.43;;;8.00;99.90;;;;;;5080251;28;20460;-68
2022/12/19 11:16:57;;;;;;;26.60;24.17;;;8.00;99.90;;;;;;5078684;28;20486;-69
2022/12/19 11:19:29;;;;;;;32.60;22.90;;;8.00;99.90;;;;;;5079500;28;20464;-69
2022/12/19 11:22:00;;;;;;;25.30;22.80;;;8.00;99.90;;;;;;5074962;28;20491;-67
2022/12/19 11:24:34;;;;;;;27.40;23.87;;;8.00;99.90;;;;;;5089997;28;20933;-71
2022/12/19 11:27:02;;;;;;;28.33;23.47;;;7.90;99.90;;;;;;5082608;28;20807;-71
2022/12/19 11:29:45;;;;;;;30.63;23.40;;;7.90;99.90;;;;;;5076905;28;20469;-70
2022/12/19 11:32:31;;;;;;;30.57;23.27;;;7.90;99.90;;;;;;5076923;28;20986;-72
2022/12/19 11:35:01;;;;;;;24.43;22.00;;;8.00;99.90;;;;;;5081730;28;20494;-72
2022/12/19 11:37:38;;;;;;;22.43;20.43;;;8.10;99.90;;;;;;5085645;28;20564;-68
2022/12/19 11:40:10;;;;;;;23.63;21.53;;;8.10;99.90;;;;;;5083733;28;20462;-70
2022/12/19 11:42:48;;;;;;;24.53;22.43;;;8.20;99.90;;;;;;5079635;28;20857;-71
2022/12/19 11:45:18;;;;;;;30.07;22.60;;;8.30;99.90;;;;;;5076954;28;20564;-72
2022/12/19 11:47:52;;;;;;;22.57;20.70;;;8.40;99.90;;;;;;5083356;28;20474;-70
2022/12/19 11:50:24;;;;;;;24.10;21.80;;;8.40;99.90;;;;;;5075646;28;20496;-70
2022/12/19 11:52:58;;;;;;;31.80;22.90;;;8.50;99.90;;;;;;5078454;28;20485;-73
2022/12/19 11:55:28;;;;;;;31.57;22.87;;;8.50;99.90;;;;;;5078958;28;20458;-71
2022/12/19 11:57:57;;;;;;;30.37;21.23;;;8.60;99.90;;;;;;5078232;28;20477;-70
2022/12/19 12:00:25;;;;;;;24.37;21.67;;;8.70;99.90;;;;;;5080177;28;20471;-70
2022/12/19 12:03:14;;;;;;;24.37;22.07;;;8.80;99.90;;;;;;5080866;28;20553;-72
2022/12/19 12:05:44;;;;;;;33.53;22.57;;;8.80;99.90;;;;;;5082336;28;20504;-72
2022/12/19 12:08:47;;;;;;;31.30;23.13;;;8.90;99.90;;;;;;5078050;28;20476;-68
2022/12/19 12:11:24;;;;;;;26.33;22.50;;;8.90;99.90;;;;;;5073312;28;20477;-70
2022/12/19 12:14:13;;;;;;;33.03;23.07;;;8.80;99.90;;;;;;5082924;28;20518;-70
2022/12/19 12:16:51;;;;;;;26.10;23.40;;;8.70;99.90;;;;;;5084535;28;20657;-69
2022/12/19 12:19:27;;;;;;;32.40;23.20;;;8.70;99.90;;;;;;5080843;28;20469;-72
2022/12/19 12:22:06;;;;;;;28.47;23.70;;;8.70;99.90;;;;;;5081093;28;20471;-72
2022/12/19 12:24:45;;;;;;;25.37;22.70;;;8.80;99.90;;;;;;5085937;28;20466;-70
2022/12/19 12:27:26;;;;;;;25.13;22.87;;;8.80;99.90;;;;;;5087882;28;20763;-69
2022/12/19 12:30:02;;;;;;;28.20;22.87;;;8.80;99.90;;;;;;5080557;28;20741;-71
2022/12/19 12:32:49;;;;;;;25.53;22.37;;;8.80;99.90;;;;;;5082857;28;20454;-70
2022/12/19 12:35:27;;;;;;;25.50;22.80;;;8.80;99.90;;;;;;5082180;28;20464;-71
2022/12/19 12:38:05;;;;;;;25.80;23.50;;;8.80;99.90;;;;;;5081213;28;20472;-68
2022/12/19 12:40:55;;;;;;;24.67;22.37;;;8.90;99.90;;;;;;5078607;28;20455;-69
2022/12/19 12:43:40;;;;;;;27.40;22.40;;;8.90;99.90;;;;;;5085167;28;20462;-69
2022/12/19 12:46:14;;;;;;;25.53;22.80;;;8.80;99.90;;;;;;5082826;28;20457;-70
2022/12/19 12:48:47;;;;;;;28.07;22.80;;;8.90;99.90;;;;;;5084764;28;20473;-72
2022/12/19 12:51:15;;;;;;;25.60;21.50;;;8.90;99.90;;;;;;5083433;28;20491;-71
2022/12/19 12:53:45;;;;;;;23.73;20.93;;;8.90;99.90;;;;;;5080971;28;20462;-69
2022/12/19 12:56:15;;;;;;;28.70;23.63;;;8.90;99.90;;;;;;5083624;28;20473;-71
2022/12/19 12:58:44;;;;;;;30.00;21.70;;;8.80;99.90;;;;;;5087599;28;20489;-71
2022/12/19 13:01:16;;;;;;;29.00;22.23;;;8.80;99.90;;;;;;5080956;28;20825;-72
2022/12/19 13:03:54;;;;;;;27.53;22.53;;;8.80;99.90;;;;;;5076792;28;20566;-70